sensor_id;sensor_type;location;lat;lon;timestamp;temperature;humidity
59961;DHT22;55902;-37.980;-63.602;2023-02-15T00:00:47;24.30;28.00
59961;DHT22;55902;-37.980;-63.602;2023-02-15T00:03:16;24.20;27.40
59961;DHT22;55902;-37.980;-63.602;2023-02-15T00:05:43;24.20;27.40
59961;DHT22;55902;-37.980;-63.602;2023-02-15T00:08:10;24.10;27.40
59961;DHT22;55902;-37.980;-63.602;2023-02-15T00:10:40;24.00;27.40
59961;DHT22;55902;-37.980;-63.602;2023-02-15T00:13:10;23.90;27.40
59961;DHT22;55902;-37.980;-63.602;2023-02-15T00:15:37;23.80;28.30
59961;DHT22;55902;-37.980;-63.602;2023-02-15T00:28:10;23.10;30.20
59961;DHT22;55902;-37.980;-63.602;2023-02-15T00:30:38;23.00;30.30
59961;DHT22;55902;-37.980;-63.602;2023-02-15T00:33:04;22.80;30.10
59961;DHT22;55902;-37.980;-63.602;2023-02-15T00:35:34;22.80;32.10
59961;DHT22;55902;-37.980;-63.602;2023-02-15T00:38:01;22.70;32.70
59961;DHT22;55902;-37.980;-63.602;2023-02-15T00:40:28;22.60;31.90
59961;DHT22;55902;-37.980;-63.602;2023-02-15T00:42:59;22.50;32.20
59961;DHT22;55902;-37.980;-63.602;2023-02-15T00:45:30;22.50;32.50
59961;DHT22;55902;-37.980;-63.602;2023-02-15T00:47:57;22.40;32.20
59961;DHT22;55902;-37.980;-63.602;2023-02-15T00:50:24;22.40;32.00
59961;DHT22;55902;-37.980;-63.602;2023-02-15T00:52:54;22.30;33.60
59961;DHT22;55902;-37.980;-63.602;2023-02-15T00:55:21;22.30;32.40
59961;DHT22;55902;-37.980;-63.602;2023-02-15T00:57:51;22.20;32.40
59961;DHT22;55902;-37.980;-63.602;2023-02-15T01:00:18;22.10;34.70
59961;DHT22;55902;-37.980;-63.602;2023-02-15T01:02:46;22.10;33.20
59961;DHT22;55902;-37.980;-63.602;2023-02-15T01:05:16;22.00;32.70
59961;DHT22;55902;-37.980;-63.602;2023-02-15T01:07:46;22.00;33.00
59961;DHT22;55902;-37.980;-63.602;2023-02-15T01:10:13;21.90;35.50
59961;DHT22;55902;-37.980;-63.602;2023-02-15T01:12:43;21.80;36.40
59961;DHT22;55902;-37.980;-63.602;2023-02-15T01:15:10;21.70;37.10
59961;DHT22;55902;-37.980;-63.602;2023-02-15T01:17:40;21.60;37.00
59961;DHT22;55902;-37.980;-63.602;2023-02-15T01:20:07;21.50;36.80
59961;DHT22;55902;-37.980;-63.602;2023-02-15T01:22:34;21.40;35.40
59961;DHT22;55902;-37.980;-63.602;2023-02-15T01:25:05;21.30;36.40
59961;DHT22;55902;-37.980;-63.602;2023-02-15T01:27:32;21.20;34.70
59961;DHT22;55902;-37.980;-63.602;2023-02-15T01:29:59;21.10;36.40
59961;DHT22;55902;-37.980;-63.602;2023-02-15T01:32:26;21.10;36.40
59961;DHT22;55902;-37.980;-63.602;2023-02-15T01:34:54;21.00;37.40
59961;DHT22;55902;-37.980;-63.602;2023-02-15T01:37:20;20.90;36.30
59961;DHT22;55902;-37.980;-63.602;2023-02-15T01:39:47;20.90;36.60
59961;DHT22;55902;-37.980;-63.602;2023-02-15T01:42:24;20.80;36.90
59961;DHT22;55902;-37.980;-63.602;2023-02-15T01:44:58;20.70;38.30
59961;DHT22;55902;-37.980;-63.602;2023-02-15T01:47:44;20.60;38.50
59961;DHT22;55902;-37.980;-63.602;2023-02-15T01:55:34;20.30;37.80
59961;DHT22;55902;-37.980;-63.602;2023-02-15T01:58:03;20.30;38.20
59961;DHT22;55902;-37.980;-63.602;2023-02-15T02:00:31;20.20;38.60
59961;DHT22;55902;-37.980;-63.602;2023-02-15T02:03:02;20.10;39.00
59961;DHT22;55902;-37.980;-63.602;2023-02-15T02:05:30;20.10;38.70
59961;DHT22;55902;-37.980;-63.602;2023-02-15T02:07:59;20.00;38.40
59961;DHT22;55902;-37.980;-63.602;2023-02-15T02:10:30;19.90;38.40
59961;DHT22;55902;-37.980;-63.602;2023-02-15T02:13:05;19.80;38.70
59961;DHT22;55902;-37.980;-63.602;2023-02-15T02:15:58;19.80;38.50
59961;DHT22;55902;-37.980;-63.602;2023-02-15T02:18:35;19.80;39.00
59961;DHT22;55902;-37.980;-63.602;2023-02-15T02:21:38;19.70;39.10
59961;DHT22;55902;-37.980;-63.602;2023-02-15T02:24:16;19.70;39.60
59961;DHT22;55902;-37.980;-63.602;2023-02-15T02:35:35;19.60;40.00
59961;DHT22;55902;-37.980;-63.602;2023-02-15T02:38:11;19.50;39.20
59961;DHT22;55902;-37.980;-63.602;2023-02-15T02:43:41;19.40;40.30
59961;DHT22;55902;-37.980;-63.602;2023-02-15T02:46:24;19.30;39.80
59961;DHT22;55902;-37.980;-63.602;2023-02-15T02:48:53;19.30;39.60
59961;DHT22;55902;-37.980;-63.602;2023-02-15T02:51:20;19.20;40.20
59961;DHT22;55902;-37.980;-63.602;2023-02-15T02:53:56;19.20;39.90
59961;DHT22;55902;-37.980;-63.602;2023-02-15T02:56:32;19.10;41.00
59961;DHT22;55902;-37.980;-63.602;2023-02-15T02:59:16;19.20;40.00
59961;DHT22;55902;-37.980;-63.602;2023-02-15T03:01:54;19.20;40.60
59961;DHT22;55902;-37.980;-63.602;2023-02-15T03:14:52;18.80;42.20
59961;DHT22;55902;-37.980;-63.602;2023-02-15T03:17:26;18.70;42.30
59961;DHT22;55902;-37.980;-63.602;2023-02-15T03:19:57;18.50;42.80
59961;DHT22;55902;-37.980;-63.602;2023-02-15T03:22:36;18.40;43.30
59961;DHT22;55902;-37.980;-63.602;2023-02-15T03:27:59;18.20;43.30
59961;DHT22;55902;-37.980;-63.602;2023-02-15T03:31:01;18.10;43.90
59961;DHT22;55902;-37.980;-63.602;2023-02-15T03:33:57;18.10;43.40
59961;DHT22;55902;-37.980;-63.602;2023-02-15T03:39:33;18.00;44.20
59961;DHT22;55902;-37.980;-63.602;2023-02-15T03:52:39;17.70;44.20
59961;DHT22;55902;-37.980;-63.602;2023-02-15T03:55:06;17.70;44.90
59961;DHT22;55902;-37.980;-63.602;2023-02-15T03:57:36;17.70;44.30
59961;DHT22;55902;-37.980;-63.602;2023-02-15T04:00:25;17.70;44.30
59961;DHT22;55902;-37.980;-63.602;2023-02-15T04:03:42;17.70;44.10
59961;DHT22;55902;-37.980;-63.602;2023-02-15T04:06:11;17.70;43.90
59961;DHT22;55902;-37.980;-63.602;2023-02-15T04:08:38;17.70;44.20
59961;DHT22;55902;-37.980;-63.602;2023-02-15T04:11:23;17.70;44.20
59961;DHT22;55902;-37.980;-63.602;2023-02-15T04:13:53;17.70;44.90
59961;DHT22;55902;-37.980;-63.602;2023-02-15T04:16:24;17.60;45.40
59961;DHT22;55902;-37.980;-63.602;2023-02-15T04:18:51;17.60;44.60
59961;DHT22;55902;-37.980;-63.602;2023-02-15T04:22:04;17.70;44.70
59961;DHT22;55902;-37.980;-63.602;2023-02-15T04:24:50;17.60;45.00
59961;DHT22;55902;-37.980;-63.602;2023-02-15T04:27:53;17.70;45.40
59961;DHT22;55902;-37.980;-63.602;2023-02-15T04:34:11;17.80;45.30
59961;DHT22;55902;-37.980;-63.602;2023-02-15T04:40:03;17.90;45.80
59961;DHT22;55902;-37.980;-63.602;2023-02-15T04:42:33;17.90;45.30
59961;DHT22;55902;-37.980;-63.602;2023-02-15T04:45:00;17.90;45.40
59961;DHT22;55902;-37.980;-63.602;2023-02-15T04:47:27;18.00;46.00
59961;DHT22;55902;-37.980;-63.602;2023-02-15T04:49:54;18.00;46.00
59961;DHT22;55902;-37.980;-63.602;2023-02-15T04:55:43;18.00;45.90
59961;DHT22;55902;-37.980;-63.602;2023-02-15T04:58:13;18.00;46.10
59961;DHT22;55902;-37.980;-63.602;2023-02-15T05:00:40;18.10;45.90
59961;DHT22;55902;-37.980;-63.602;2023-02-15T05:03:07;18.00;46.40
59961;DHT22;55902;-37.980;-63.602;2023-02-15T05:05:38;18.10;45.80
59961;DHT22;55902;-37.980;-63.602;2023-02-15T05:08:08;18.10;46.00
59961;DHT22;55902;-37.980;-63.602;2023-02-15T05:10:35;18.00;46.40
59961;DHT22;55902;-37.980;-63.602;2023-02-15T05:13:02;18.00;46.40
59961;DHT22;55902;-37.980;-63.602;2023-02-15T05:15:31;18.00;46.20
59961;DHT22;55902;-37.980;-63.602;2023-02-15T05:17:58;17.90;47.50
59961;DHT22;55902;-37.980;-63.602;2023-02-15T05:20:28;17.90;47.40
59961;DHT22;55902;-37.980;-63.602;2023-02-15T05:22:56;17.90;47.80
59961;DHT22;55902;-37.980;-63.602;2023-02-15T05:25:26;17.80;47.70
59961;DHT22;55902;-37.980;-63.602;2023-02-15T05:28:11;17.80;47.20
59961;DHT22;55902;-37.980;-63.602;2023-02-15T05:33:33;17.70;48.80
59961;DHT22;55902;-37.980;-63.602;2023-02-15T05:36:00;17.60;48.50
59961;DHT22;55902;-37.980;-63.602;2023-02-15T05:38:27;17.50;49.50
59961;DHT22;55902;-37.980;-63.602;2023-02-15T05:40:54;17.40;50.10
59961;DHT22;55902;-37.980;-63.602;2023-02-15T05:43:22;17.40;50.10
59961;DHT22;55902;-37.980;-63.602;2023-02-15T05:45:55;17.40;50.20
59961;DHT22;55902;-37.980;-63.602;2023-02-15T05:48:24;17.40;50.00
59961;DHT22;55902;-37.980;-63.602;2023-02-15T05:51:10;17.40;50.70
59961;DHT22;55902;-37.980;-63.602;2023-02-15T05:53:40;17.40;50.20
59961;DHT22;55902;-37.980;-63.602;2023-02-15T05:56:09;17.40;51.00
59961;DHT22;55902;-37.980;-63.602;2023-02-15T05:58:41;17.40;50.80
59961;DHT22;55902;-37.980;-63.602;2023-02-15T06:01:16;17.30;51.50
59961;DHT22;55902;-37.980;-63.602;2023-02-15T06:03:52;17.30;51.40
59961;DHT22;55902;-37.980;-63.602;2023-02-15T06:06:22;17.20;50.90
59961;DHT22;55902;-37.980;-63.602;2023-02-15T06:08:49;17.20;51.60
59961;DHT22;55902;-37.980;-63.602;2023-02-15T06:11:16;17.20;51.60
59961;DHT22;55902;-37.980;-63.602;2023-02-15T06:13:43;17.10;52.60
59961;DHT22;55902;-37.980;-63.602;2023-02-15T06:16:10;17.10;52.10
59961;DHT22;55902;-37.980;-63.602;2023-02-15T06:18:37;17.00;53.40
59961;DHT22;55902;-37.980;-63.602;2023-02-15T06:21:04;17.00;50.70
59961;DHT22;55902;-37.980;-63.602;2023-02-15T06:23:34;17.00;52.40
59961;DHT22;55902;-37.980;-63.602;2023-02-15T06:26:04;16.90;53.00
59961;DHT22;55902;-37.980;-63.602;2023-02-15T06:28:31;16.80;53.10
59961;DHT22;55902;-37.980;-63.602;2023-02-15T06:31:01;16.80;52.80
59961;DHT22;55902;-37.980;-63.602;2023-02-15T06:33:31;16.80;52.30
59961;DHT22;55902;-37.980;-63.602;2023-02-15T06:36:05;16.70;53.50
59961;DHT22;55902;-37.980;-63.602;2023-02-15T06:38:36;16.60;54.30
59961;DHT22;55902;-37.980;-63.602;2023-02-15T06:41:05;16.50;54.30
59961;DHT22;55902;-37.980;-63.602;2023-02-15T06:43:34;16.50;54.60
59961;DHT22;55902;-37.980;-63.602;2023-02-15T06:46:01;16.40;54.80
59961;DHT22;55902;-37.980;-63.602;2023-02-15T06:48:28;16.40;54.60
59961;DHT22;55902;-37.980;-63.602;2023-02-15T06:50:58;16.30;55.30
59961;DHT22;55902;-37.980;-63.602;2023-02-15T06:53:29;16.20;55.90
59961;DHT22;55902;-37.980;-63.602;2023-02-15T06:56:03;16.20;55.40
59961;DHT22;55902;-37.980;-63.602;2023-02-15T06:58:39;16.20;55.90
59961;DHT22;55902;-37.980;-63.602;2023-02-15T07:01:09;16.10;56.00
59961;DHT22;55902;-37.980;-63.602;2023-02-15T07:03:36;16.10;56.80
59961;DHT22;55902;-37.980;-63.602;2023-02-15T07:06:06;16.00;57.30
59961;DHT22;55902;-37.980;-63.602;2023-02-15T07:08:38;15.90;58.20
59961;DHT22;55902;-37.980;-63.602;2023-02-15T07:11:09;15.90;58.40
59961;DHT22;55902;-37.980;-63.602;2023-02-15T07:13:54;15.90;58.50
59961;DHT22;55902;-37.980;-63.602;2023-02-15T07:16:21;15.90;58.90
59961;DHT22;55902;-37.980;-63.602;2023-02-15T07:18:51;15.90;58.50
59961;DHT22;55902;-37.980;-63.602;2023-02-15T07:21:18;15.80;59.00
59961;DHT22;55902;-37.980;-63.602;2023-02-15T07:23:52;15.80;59.00
59961;DHT22;55902;-37.980;-63.602;2023-02-15T07:26:22;15.80;58.70
59961;DHT22;55902;-37.980;-63.602;2023-02-15T07:28:49;15.70;59.50
59961;DHT22;55902;-37.980;-63.602;2023-02-15T07:31:16;15.70;59.90
59961;DHT22;55902;-37.980;-63.602;2023-02-15T07:33:43;15.60;59.20
59961;DHT22;55902;-37.980;-63.602;2023-02-15T07:36:12;15.60;59.60
59961;DHT22;55902;-37.980;-63.602;2023-02-15T07:38:44;15.50;60.10
59961;DHT22;55902;-37.980;-63.602;2023-02-15T07:41:13;15.50;59.60
59961;DHT22;55902;-37.980;-63.602;2023-02-15T07:43:47;15.40;59.70
59961;DHT22;55902;-37.980;-63.602;2023-02-15T07:46:17;15.40;61.10
59961;DHT22;55902;-37.980;-63.602;2023-02-15T07:48:44;15.30;62.80
59961;DHT22;55902;-37.980;-63.602;2023-02-15T07:51:15;15.30;61.80
59961;DHT22;55902;-37.980;-63.602;2023-02-15T07:53:42;15.20;59.40
59961;DHT22;55902;-37.980;-63.602;2023-02-15T07:56:13;15.20;62.00
59961;DHT22;55902;-37.980;-63.602;2023-02-15T07:58:40;15.20;63.30
59961;DHT22;55902;-37.980;-63.602;2023-02-15T08:01:26;15.10;61.50
59961;DHT22;55902;-37.980;-63.602;2023-02-15T08:03:54;15.00;63.40
59961;DHT22;55902;-37.980;-63.602;2023-02-15T08:06:25;14.90;61.90
59961;DHT22;55902;-37.980;-63.602;2023-02-15T08:08:53;14.90;64.00
59961;DHT22;55902;-37.980;-63.602;2023-02-15T08:11:22;14.80;64.40
59961;DHT22;55902;-37.980;-63.602;2023-02-15T08:16:28;14.80;62.30
59961;DHT22;55902;-37.980;-63.602;2023-02-15T08:19:06;14.80;64.40
59961;DHT22;55902;-37.980;-63.602;2023-02-15T08:21:38;14.70;65.40
59961;DHT22;55902;-37.980;-63.602;2023-02-15T08:24:09;14.60;66.00
59961;DHT22;55902;-37.980;-63.602;2023-02-15T08:26:39;14.60;66.40
59961;DHT22;55902;-37.980;-63.602;2023-02-15T08:29:10;14.60;65.10
59961;DHT22;55902;-37.980;-63.602;2023-02-15T08:31:37;14.50;66.40
59961;DHT22;55902;-37.980;-63.602;2023-02-15T08:34:08;14.50;66.20
59961;DHT22;55902;-37.980;-63.602;2023-02-15T08:36:41;14.50;66.50
59961;DHT22;55902;-37.980;-63.602;2023-02-15T08:39:13;14.40;67.40
59961;DHT22;55902;-37.980;-63.602;2023-02-15T08:41:44;14.40;66.70
59961;DHT22;55902;-37.980;-63.602;2023-02-15T08:44:12;14.40;66.70
59961;DHT22;55902;-37.980;-63.602;2023-02-15T08:46:41;14.40;65.60
59961;DHT22;55902;-37.980;-63.602;2023-02-15T08:49:09;14.40;66.40
59961;DHT22;55902;-37.980;-63.602;2023-02-15T08:51:38;14.50;64.70
59961;DHT22;55902;-37.980;-63.602;2023-02-15T08:54:20;14.50;62.50
59961;DHT22;55902;-37.980;-63.602;2023-02-15T08:56:48;14.60;62.90
59961;DHT22;55902;-37.980;-63.602;2023-02-15T08:59:20;14.60;66.00
59961;DHT22;55902;-37.980;-63.602;2023-02-15T09:01:49;14.50;67.40
59961;DHT22;55902;-37.980;-63.602;2023-02-15T09:04:20;14.50;68.00
59961;DHT22;55902;-37.980;-63.602;2023-02-15T09:06:50;14.40;69.30
59961;DHT22;55902;-37.980;-63.602;2023-02-15T09:09:19;14.30;68.40
59961;DHT22;55902;-37.980;-63.602;2023-02-15T09:11:50;14.30;67.30
59961;DHT22;55902;-37.980;-63.602;2023-02-15T09:14:19;14.30;65.80
59961;DHT22;55902;-37.980;-63.602;2023-02-15T09:16:56;14.40;64.90
59961;DHT22;55902;-37.980;-63.602;2023-02-15T09:19:24;14.50;62.20
59961;DHT22;55902;-37.980;-63.602;2023-02-15T09:21:51;14.50;59.60
59961;DHT22;55902;-37.980;-63.602;2023-02-15T09:24:18;14.60;59.10
59961;DHT22;55902;-37.980;-63.602;2023-02-15T09:26:49;14.60;62.20
59961;DHT22;55902;-37.980;-63.602;2023-02-15T09:29:18;14.60;62.80
59961;DHT22;55902;-37.980;-63.602;2023-02-15T09:31:57;14.70;64.30
59961;DHT22;55902;-37.980;-63.602;2023-02-15T09:34:39;14.70;63.00
59961;DHT22;55902;-37.980;-63.602;2023-02-15T09:37:12;14.70;59.80
59961;DHT22;55902;-37.980;-63.602;2023-02-15T09:39:42;14.70;61.20
59961;DHT22;55902;-37.980;-63.602;2023-02-15T09:42:21;14.70;61.70
59961;DHT22;55902;-37.980;-63.602;2023-02-15T09:56:28;14.80;59.30
59961;DHT22;55902;-37.980;-63.602;2023-02-15T09:59:27;14.90;62.00
59961;DHT22;55902;-37.980;-63.602;2023-02-15T10:02:23;14.90;63.00
59961;DHT22;55902;-37.980;-63.602;2023-02-15T10:10:50;15.30;61.10
59961;DHT22;55902;-37.980;-63.602;2023-02-15T10:27:21;15.90;59.60
59961;DHT22;55902;-37.980;-63.602;2023-02-15T10:30:13;16.00;58.00
59961;DHT22;55902;-37.980;-63.602;2023-02-15T10:33:01;16.10;58.40
59961;DHT22;55902;-37.980;-63.602;2023-02-15T10:38:40;16.30;59.70
59961;DHT22;55902;-37.980;-63.602;2023-02-15T10:41:31;16.40;58.70
59961;DHT22;55902;-37.980;-63.602;2023-02-15T10:53:32;17.00;58.70
59961;DHT22;55902;-37.980;-63.602;2023-02-15T11:06:37;17.60;59.60
59961;DHT22;55902;-37.980;-63.602;2023-02-15T11:09:13;17.80;58.30
59961;DHT22;55902;-37.980;-63.602;2023-02-15T11:11:53;18.00;58.50
59961;DHT22;55902;-37.980;-63.602;2023-02-15T11:14:42;18.30;58.00
59961;DHT22;55902;-37.980;-63.602;2023-02-15T11:17:22;18.60;57.30
59961;DHT22;55902;-37.980;-63.602;2023-02-15T11:22:48;18.90;56.80
59961;DHT22;55902;-37.980;-63.602;2023-02-15T11:25:28;19.10;56.20
59961;DHT22;55902;-37.980;-63.602;2023-02-15T11:28:04;19.20;55.90
59961;DHT22;55902;-37.980;-63.602;2023-02-15T11:30:45;19.20;55.80
59961;DHT22;55902;-37.980;-63.602;2023-02-15T11:33:26;19.40;55.60
59961;DHT22;55902;-37.980;-63.602;2023-02-15T11:36:21;19.40;54.90
59961;DHT22;55902;-37.980;-63.602;2023-02-15T11:38:56;19.60;54.70
59961;DHT22;55902;-37.980;-63.602;2023-02-15T11:41:31;19.70;54.50
59961;DHT22;55902;-37.980;-63.602;2023-02-15T11:44:04;19.80;54.30
59961;DHT22;55902;-37.980;-63.602;2023-02-15T11:46:36;20.00;53.80
59961;DHT22;55902;-37.980;-63.602;2023-02-15T11:49:21;20.30;53.40
59961;DHT22;55902;-37.980;-63.602;2023-02-15T11:51:50;20.70;52.60
59961;DHT22;55902;-37.980;-63.602;2023-02-15T11:54:21;21.20;52.30
59961;DHT22;55902;-37.980;-63.602;2023-02-15T11:57:05;21.70;51.00
59961;DHT22;55902;-37.980;-63.602;2023-02-15T11:59:38;22.30;50.20
59961;DHT22;55902;-37.980;-63.602;2023-02-15T12:02:24;22.90;48.50
59961;DHT22;55902;-37.980;-63.602;2023-02-15T12:05:12;23.00;47.80
59961;DHT22;55902;-37.980;-63.602;2023-02-15T12:07:46;23.20;47.40
59961;DHT22;55902;-37.980;-63.602;2023-02-15T12:10:40;23.30;47.10
59961;DHT22;55902;-37.980;-63.602;2023-02-15T12:13:16;23.60;46.90
59961;DHT22;55902;-37.980;-63.602;2023-02-15T12:15:48;24.10;46.10
59961;DHT22;55902;-37.980;-63.602;2023-02-15T12:21:23;25.10;44.90
59961;DHT22;55902;-37.980;-63.602;2023-02-15T12:26:43;25.40;43.90
59961;DHT22;55902;-37.980;-63.602;2023-02-15T12:29:16;25.50;43.00
59961;DHT22;55902;-37.980;-63.602;2023-02-15T12:31:50;25.50;42.90
59961;DHT22;55902;-37.980;-63.602;2023-02-15T12:34:31;25.80;42.90
59961;DHT22;55902;-37.980;-63.602;2023-02-15T12:37:02;26.30;42.50
59961;DHT22;55902;-37.980;-63.602;2023-02-15T12:39:34;26.70;42.00
59961;DHT22;55902;-37.980;-63.602;2023-02-15T12:42:15;26.60;41.20
59961;DHT22;55902;-37.980;-63.602;2023-02-15T12:45:04;26.50;42.50
59961;DHT22;55902;-37.980;-63.602;2023-02-15T12:47:45;26.50;41.90
59961;DHT22;55902;-37.980;-63.602;2023-02-15T12:50:24;26.60;41.30
59961;DHT22;55902;-37.980;-63.602;2023-02-15T12:53:23;26.40;41.30
59961;DHT22;55902;-37.980;-63.602;2023-02-15T12:56:00;26.50;42.20
59961;DHT22;55902;-37.980;-63.602;2023-02-15T12:58:31;26.90;40.70
59961;DHT22;55902;-37.980;-63.602;2023-02-15T13:01:18;27.20;40.40
59961;DHT22;55902;-37.980;-63.602;2023-02-15T13:04:05;27.40;41.00
59961;DHT22;55902;-37.980;-63.602;2023-02-15T13:06:37;27.50;39.40
59961;DHT22;55902;-37.980;-63.602;2023-02-15T13:11:54;27.20;39.80
59961;DHT22;55902;-37.980;-63.602;2023-02-15T13:14:28;26.90;39.50
59961;DHT22;55902;-37.980;-63.602;2023-02-15T13:17:00;26.90;41.00
59961;DHT22;55902;-37.980;-63.602;2023-02-15T13:19:46;26.80;40.80
59961;DHT22;55902;-37.980;-63.602;2023-02-15T13:22:20;26.70;40.80
59961;DHT22;55902;-37.980;-63.602;2023-02-15T13:25:10;26.50;40.80
59961;DHT22;55902;-37.980;-63.602;2023-02-15T13:27:42;26.30;40.60
59961;DHT22;55902;-37.980;-63.602;2023-02-15T13:32:49;25.80;41.40
59961;DHT22;55902;-37.980;-63.602;2023-02-15T13:35:21;25.50;41.70
59961;DHT22;55902;-37.980;-63.602;2023-02-15T13:38:06;25.30;41.70
59961;DHT22;55902;-37.980;-63.602;2023-02-15T13:40:55;25.30;42.40
59961;DHT22;55902;-37.980;-63.602;2023-02-15T13:43:38;25.60;42.20
59961;DHT22;55902;-37.980;-63.602;2023-02-15T13:46:28;25.90;41.40
59961;DHT22;55902;-37.980;-63.602;2023-02-15T13:49:12;26.30;41.20
59961;DHT22;55902;-37.980;-63.602;2023-02-15T14:00:15;28.70;39.00
59961;DHT22;55902;-37.980;-63.602;2023-02-15T14:03:10;29.20;37.90
59961;DHT22;55902;-37.980;-63.602;2023-02-15T14:20:32;27.40;38.50
59961;DHT22;55902;-37.980;-63.602;2023-02-15T14:26:09;27.20;38.80
59961;DHT22;55902;-37.980;-63.602;2023-02-15T14:31:37;27.40;38.00
59961;DHT22;55902;-37.980;-63.602;2023-02-15T14:37:09;27.90;37.90
59961;DHT22;55902;-37.980;-63.602;2023-02-15T14:39:55;27.90;37.50
59961;DHT22;55902;-37.980;-63.602;2023-02-15T14:42:50;27.90;37.50
59961;DHT22;55902;-37.980;-63.602;2023-02-15T14:48:33;27.90;37.30
59961;DHT22;55902;-37.980;-63.602;2023-02-15T14:51:02;28.00;36.70
59961;DHT22;55902;-37.980;-63.602;2023-02-15T14:53:36;28.10;36.40
59961;DHT22;55902;-37.980;-63.602;2023-02-15T15:01:36;28.60;36.30
59961;DHT22;55902;-37.980;-63.602;2023-02-15T15:09:45;28.40;36.70
59961;DHT22;55902;-37.980;-63.602;2023-02-15T15:14:49;28.60;37.50
59961;DHT22;55902;-37.980;-63.602;2023-02-15T15:25:56;29.60;36.40
59961;DHT22;55902;-37.980;-63.602;2023-02-15T15:44:42;30.30;34.70
59961;DHT22;55902;-37.980;-63.602;2023-02-15T15:50:22;30.20;34.30
59961;DHT22;55902;-37.980;-63.602;2023-02-15T15:52:54;30.40;33.70
59961;DHT22;55902;-37.980;-63.602;2023-02-15T15:55:24;30.90;33.70
59961;DHT22;55902;-37.980;-63.602;2023-02-15T15:57:55;31.30;34.40
59961;DHT22;55902;-37.980;-63.602;2023-02-15T16:00:47;31.90;33.60
59961;DHT22;55902;-37.980;-63.602;2023-02-15T16:03:24;32.00;31.60
59961;DHT22;55902;-37.980;-63.602;2023-02-15T16:05:55;31.80;31.40
59961;DHT22;55902;-37.980;-63.602;2023-02-15T16:08:36;31.80;32.80
59961;DHT22;55902;-37.980;-63.602;2023-02-15T16:11:21;32.30;33.00
59961;DHT22;55902;-37.980;-63.602;2023-02-15T16:13:49;32.80;33.00
59961;DHT22;55902;-37.980;-63.602;2023-02-15T16:16:29;33.30;32.50
59961;DHT22;55902;-37.980;-63.602;2023-02-15T16:18:57;33.60;31.40
59961;DHT22;55902;-37.980;-63.602;2023-02-15T16:21:35;33.70;30.40
59961;DHT22;55902;-37.980;-63.602;2023-02-15T16:29:52;34.20;29.90
59961;DHT22;55902;-37.980;-63.602;2023-02-15T16:32:24;34.30;29.90
59961;DHT22;55902;-37.980;-63.602;2023-02-15T16:37:25;34.50;29.90
59961;DHT22;55902;-37.980;-63.602;2023-02-15T16:39:57;34.50;29.60
59961;DHT22;55902;-37.980;-63.602;2023-02-15T16:42:25;34.50;30.30
59961;DHT22;55902;-37.980;-63.602;2023-02-15T16:45:05;34.30;29.50
59961;DHT22;55902;-37.980;-63.602;2023-02-15T16:47:41;34.40;29.50
59961;DHT22;55902;-37.980;-63.602;2023-02-15T16:50:21;34.50;29.80
59961;DHT22;55902;-37.980;-63.602;2023-02-15T16:52:49;34.70;29.90
59961;DHT22;55902;-37.980;-63.602;2023-02-15T16:55:28;35.10;29.30
59961;DHT22;55902;-37.980;-63.602;2023-02-15T16:58:02;35.30;29.30
59961;DHT22;55902;-37.980;-63.602;2023-02-15T17:00:37;35.40;28.70
59961;DHT22;55902;-37.980;-63.602;2023-02-15T17:03:22;35.50;28.60
59961;DHT22;55902;-37.980;-63.602;2023-02-15T17:05:55;35.70;28.80
59961;DHT22;55902;-37.980;-63.602;2023-02-15T17:08:31;35.50;28.80
59961;DHT22;55902;-37.980;-63.602;2023-02-15T17:13:29;34.80;28.90
59961;DHT22;55902;-37.980;-63.602;2023-02-15T17:18:31;34.70;30.80
59961;DHT22;55902;-37.980;-63.602;2023-02-15T17:21:01;34.90;31.10
59961;DHT22;55902;-37.980;-63.602;2023-02-15T17:23:44;35.20;30.70
59961;DHT22;55902;-37.980;-63.602;2023-02-15T17:26:36;35.80;31.00
59961;DHT22;55902;-37.980;-63.602;2023-02-15T17:39:22;37.30;28.70
59961;DHT22;55902;-37.980;-63.602;2023-02-15T17:41:49;37.80;29.30
59961;DHT22;55902;-37.980;-63.602;2023-02-15T17:44:19;38.20;28.80
59961;DHT22;55902;-37.980;-63.602;2023-02-15T17:46:45;38.40;28.00
59961;DHT22;55902;-37.980;-63.602;2023-02-15T17:49:23;38.40;27.90
59961;DHT22;55902;-37.980;-63.602;2023-02-15T17:51:51;38.70;27.30
59961;DHT22;55902;-37.980;-63.602;2023-02-15T17:54:18;38.70;27.30
59961;DHT22;55902;-37.980;-63.602;2023-02-15T17:57:15;38.60;26.90
59961;DHT22;55902;-37.980;-63.602;2023-02-15T17:59:42;38.20;27.70
59961;DHT22;55902;-37.980;-63.602;2023-02-15T18:02:33;38.30;27.30
59961;DHT22;55902;-37.980;-63.602;2023-02-15T18:05:19;38.30;27.10
59961;DHT22;55902;-37.980;-63.602;2023-02-15T18:08:15;38.40;27.20
59961;DHT22;55902;-37.980;-63.602;2023-02-15T18:11:01;38.50;26.40
59961;DHT22;55902;-37.980;-63.602;2023-02-15T18:13:50;38.30;26.90
59961;DHT22;55902;-37.980;-63.602;2023-02-15T18:16:22;38.40;27.00
59961;DHT22;55902;-37.980;-63.602;2023-02-15T18:18:52;38.30;26.80
59961;DHT22;55902;-37.980;-63.602;2023-02-15T18:21:19;38.40;26.70
59961;DHT22;55902;-37.980;-63.602;2023-02-15T18:23:46;37.70;27.10
59961;DHT22;55902;-37.980;-63.602;2023-02-15T18:26:19;37.20;27.10
59961;DHT22;55902;-37.980;-63.602;2023-02-15T18:28:46;37.20;27.20
59961;DHT22;55902;-37.980;-63.602;2023-02-15T18:31:13;37.30;27.30
59961;DHT22;55902;-37.980;-63.602;2023-02-15T18:34:04;37.30;27.60
59961;DHT22;55902;-37.980;-63.602;2023-02-15T18:36:39;37.20;27.60
59961;DHT22;55902;-37.980;-63.602;2023-02-15T18:39:40;37.00;28.50
59961;DHT22;55902;-37.980;-63.602;2023-02-15T18:44:54;36.50;29.70
59961;DHT22;55902;-37.980;-63.602;2023-02-15T18:47:25;36.10;28.90
59961;DHT22;55902;-37.980;-63.602;2023-02-15T18:49:53;35.70;29.70
59961;DHT22;55902;-37.980;-63.602;2023-02-15T18:52:22;35.10;29.20
59961;DHT22;55902;-37.980;-63.602;2023-02-15T18:54:53;34.40;29.90
59961;DHT22;55902;-37.980;-63.602;2023-02-15T18:57:27;33.60;30.20
59961;DHT22;55902;-37.980;-63.602;2023-02-15T18:59:55;33.00;32.00
59961;DHT22;55902;-37.980;-63.602;2023-02-15T19:02:22;32.50;33.00
59961;DHT22;55902;-37.980;-63.602;2023-02-15T19:04:49;32.30;33.10
59961;DHT22;55902;-37.980;-63.602;2023-02-15T19:07:19;32.20;33.90
59961;DHT22;55902;-37.980;-63.602;2023-02-15T19:09:51;32.30;33.00
59961;DHT22;55902;-37.980;-63.602;2023-02-15T19:12:19;32.40;32.50
59961;DHT22;55902;-37.980;-63.602;2023-02-15T19:14:46;32.20;32.30
59961;DHT22;55902;-37.980;-63.602;2023-02-15T19:17:18;32.00;32.50
59961;DHT22;55902;-37.980;-63.602;2023-02-15T19:19:50;32.00;32.90
59961;DHT22;55902;-37.980;-63.602;2023-02-15T19:22:24;32.10;32.20
59961;DHT22;55902;-37.980;-63.602;2023-02-15T19:24:59;32.20;32.00
59961;DHT22;55902;-37.980;-63.602;2023-02-15T19:27:33;32.30;31.80
59961;DHT22;55902;-37.980;-63.602;2023-02-15T19:30:03;32.20;32.10